Time,TemperatureF,DewpointF,PressureIn,WindDirection,WindDirectionDegrees,WindSpeedMPH,WindSpeedGustMPH,Humidity,HourlyPrecipIn,Conditions,Clouds,dailyrainin,SoftwareType,DateUTC
2013-04-01 00:13:00,62.8,58.0,29.94,SW,225,7.0,16.0,84,0.00,,,0.00,weatherlink.com 1.10,2013-04-01 04:13:00,
2013-04-01 00:28:00,62.9,58.0,29.94,SW,227,7.0,15.0,84,0.00,,,0.00,weatherlink.com 1.10,2013-04-01 04:28:00,
2013-04-01 00:43:00,62.9,58.0,29.94,SW,236,9.0,13.0,84,0.00,,,0.00,weatherlink.com 1.10,2013-04-01 04:43:00,
2013-04-01 00:58:00,63.1,58.0,29.94,SW,223,8.0,15.0,84,0.00,,,0.00,weatherlink.com 1.10,2013-04-01 04:58:00,
2013-04-01 01:13:00,63.0,59.0,29.93,SW,226,6.0,14.0,85,0.00,,,0.00,weatherlink.com 1.10,2013-04-01 05:13:00,
2013-04-01 01:28:00,62.9,58.0,29.93,SW,225,8.0,13.0,85,0.00,,,0.00,weatherlink.com 1.10,2013-04-01 05:28:00,
2013-04-01 01:43:00,62.7,58.0,29.93,SW,227,9.0,11.0,85,0.00,,,0.00,weatherlink.com 1.10,2013-04-01 05:43:00,
2013-04-01 01:58:00,62.6,58.0,29.93,SW,228,6.0,11.0,85,0.00,,,0.00,weatherlink.com 1.10,2013-04-01 05:58:00,
2013-04-01 02:13:00,62.7,58.0,29.92,SW,222,8.0,14.0,85,0.00,,,0.00,weatherlink.com 1.10,2013-04-01 06:13:00,
2013-04-01 02:28:00,62.8,58.0,29.91,SW,217,9.0,13.0,84,0.00,,,0.00,weatherlink.com 1.10,2013-04-01 06:28:00,
2013-04-01 02:43:00,62.8,58.0,29.91,SW,224,7.0,12.0,84,0.00,,,0.00,weatherlink.com 1.10,2013-04-01 06:43:00,
2013-04-01 02:58:00,62.4,58.0,29.90,SW,229,6.0,9.0,85,0.00,,,0.00,weatherlink.com 1.10,2013-04-01 06:58:00,
2013-04-01 03:13:00,62.2,58.0,29.90,SW,226,5.0,10.0,85,0.00,,,0.00,weatherlink.com 1.10,2013-04-01 07:13:00,
2013-04-01 03:28:00,62.4,58.0,29.90,WSW,240,5.0,11.0,84,0.00,,,0.00,weatherlink.com 1.10,2013-04-01 07:28:00,
2013-04-01 04:33:00,61.8,57.0,29.88,SW,229,3.0,5.0,84,0.00,,,0.00,weatherlink.com 1.10,2013-04-01 08:33:00,
2013-04-01 04:43:00,61.8,57.0,29.89,WSW,240,6.0,8.0,84,0.00,,,0.00,weatherlink.com 1.10,2013-04-01 08:43:00,
2013-04-01 04:58:00,62.9,57.0,29.89,WSW,245,4.0,11.0,82,0.00,,,0.00,weatherlink.com 1.10,2013-04-01 08:58:00,
2013-04-01 05:14:00,63.4,58.0,29.89,WSW,251,8.0,11.0,81,0.00,,,0.00,weatherlink.com 1.10,2013-04-01 09:14:00,
2013-04-01 05:29:00,63.3,57.0,29.90,WSW,250,7.0,10.0,81,0.00,,,0.00,weatherlink.com 1.10,2013-04-01 09:29:00,
2013-04-01 05:44:00,62.8,58.0,29.90,WSW,247,6.0,7.0,83,0.00,,,0.00,weatherlink.com 1.10,2013-04-01 09:44:00,
2013-04-01 05:59:00,62.6,58.0,29.89,WSW,246,0.0,9.0,84,0.00,,,0.00,weatherlink.com 1.10,2013-04-01 09:59:00,
2013-04-01 06:14:00,62.3,58.0,29.90,WSW,250,5.0,7.0,85,0.00,,,0.00,weatherlink.com 1.10,2013-04-01 10:14:00,
2013-04-01 06:29:00,62.9,58.0,29.89,West,260,0.0,8.0,83,0.00,,,0.00,weatherlink.com 1.10,2013-04-01 10:29:00,
2013-04-01 06:44:00,63.1,58.0,29.90,West,280,8.0,10.0,83,0.00,,,0.00,weatherlink.com 1.10,2013-04-01 10:44:00,
2013-04-01 06:59:00,62.9,58.0,29.91,West,270,6.0,10.0,83,0.00,,,0.00,weatherlink.com 1.10,2013-04-01 10:59:00,
2013-04-01 07:14:00,62.3,58.0,29.91,West,277,6.0,8.0,86,0.00,,,0.00,weatherlink.com 1.10,2013-04-01 11:14:00,
2013-04-01 07:29:00,61.7,58.0,29.91,West,270,6.0,9.0,88,0.00,,,0.00,weatherlink.com 1.10,2013-04-01 11:29:00,
2013-04-01 07:44:00,61.3,58.0,29.92,West,271,0.0,7.0,90,0.00,,,0.00,weatherlink.com 1.10,2013-04-01 11:44:00,
2013-04-01 07:59:00,61.0,58.0,29.92,SSW,202,0.0,7.0,91,0.00,,,0.00,weatherlink.com 1.10,2013-04-01 11:59:00,
2013-04-01 08:14:00,60.9,59.0,29.93,WSW,243,3.0,5.0,92,0.00,,,0.00,weatherlink.com 1.10,2013-04-01 12:14:00,
2013-04-01 08:29:00,61.1,59.0,29.94,WSW,240,6.0,8.0,92,0.00,,,0.00,weatherlink.com 1.10,2013-04-01 12:29:00,
2013-04-01 08:44:00,61.4,59.0,29.95,SW,232,4.0,10.0,92,0.00,,,0.00,weatherlink.com 1.10,2013-04-01 12:44:00,
2013-04-01 08:59:00,61.5,59.0,29.94,SW,233,5.0,10.0,91,0.00,,,0.00,weatherlink.com 1.10,2013-04-01 12:59:00,
2013-04-01 09:14:00,61.5,59.0,29.94,SW,236,5.0,7.0,91,0.00,,,0.00,weatherlink.com 1.10,2013-04-01 13:14:00,
2013-04-01 09:29:00,62.1,59.0,29.95,SW,214,6.0,11.0,90,0.00,,,0.00,weatherlink.com 1.10,2013-04-01 13:29:00,
2013-04-01 09:44:00,62.1,59.0,29.95,SW,225,9.0,13.0,90,0.01,,,0.01,weatherlink.com 1.10,2013-04-01 13:44:00,
2013-04-01 09:59:00,61.8,59.0,29.95,SW,223,8.0,8.0,90,0.01,,,0.01,weatherlink.com 1.10,2013-04-01 13:59:00,
2013-04-01 10:14:00,61.7,59.0,29.94,SW,229,3.0,9.0,91,0.01,,,0.01,weatherlink.com 1.10,2013-04-01 14:14:00,
2013-04-01 10:29:00,61.8,60.0,29.93,SW,218,4.0,7.0,92,0.01,,,0.01,weatherlink.com 1.10,2013-04-01 14:29:00,
2013-04-01 10:44:00,62.4,60.0,29.93,SW,219,6.0,11.0,91,0.00,,,0.01,weatherlink.com 1.10,2013-04-01 14:44:00,
2013-04-01 10:59:00,64.5,61.0,29.93,WSW,253,5.0,14.0,89,0.00,,,0.01,weatherlink.com 1.10,2013-04-01 14:59:00,
2013-04-01 11:14:00,65.3,61.0,29.93,West,273,7.0,15.0,86,0.00,,,0.01,weatherlink.com 1.10,2013-04-01 15:14:00,
2013-04-01 11:29:00,65.5,61.0,29.93,WSW,258,8.0,18.0,85,0.00,,,0.01,weatherlink.com 1.10,2013-04-01 15:29:00,
2013-04-01 11:44:00,66.5,61.0,29.94,WSW,254,10.0,17.0,83,0.00,,,0.01,weatherlink.com 1.10,2013-04-01 15:44:00,
2013-04-01 11:59:00,66.9,61.0,29.93,West,265,8.0,18.0,81,0.00,,,0.01,weatherlink.com 1.10,2013-04-01 15:59:00,
2013-04-01 12:14:00,67.4,61.0,29.93,West,275,6.0,12.0,81,0.00,,,0.01,weatherlink.com 1.10,2013-04-01 16:14:00,
2013-04-01 12:29:00,68.3,61.0,29.92,WNW,294,9.0,12.0,77,0.00,,,0.01,weatherlink.com 1.10,2013-04-01 16:29:00,
2013-04-01 12:44:00,69.6,61.0,29.92,West,260,4.0,12.0,75,0.00,,,0.01,weatherlink.com 1.10,2013-04-01 16:44:00,
2013-04-01 12:59:00,70.6,61.0,29.91,West,279,6.0,11.0,71,0.00,,,0.01,weatherlink.com 1.10,2013-04-01 16:59:00,
2013-04-01 13:14:00,71.2,60.0,29.91,West,264,7.0,17.0,68,0.00,,,0.01,weatherlink.com 1.10,2013-04-01 17:14:00,
2013-04-01 13:29:00,71.5,61.0,29.91,WNW,284,7.0,11.0,69,0.00,,,0.01,weatherlink.com 1.10,2013-04-01 17:29:00,
2013-04-01 13:44:00,72.0,60.0,29.90,WSW,246,8.0,12.0,66,0.00,,,0.01,weatherlink.com 1.10,2013-04-01 17:44:00,
2013-04-01 13:59:00,71.8,60.0,29.89,WSW,252,12.0,14.0,66,0.00,,,0.01,weatherlink.com 1.10,2013-04-01 17:59:00,
2013-04-01 14:14:00,71.5,60.0,29.90,WSW,248,8.0,13.0,68,0.00,,,0.01,weatherlink.com 1.10,2013-04-01 18:14:00,
2013-04-01 14:29:00,71.8,61.0,29.89,West,267,7.0,13.0,68,0.00,,,0.01,weatherlink.com 1.10,2013-04-01 18:29:00,
2013-04-01 14:44:00,71.4,61.0,29.88,WSW,251,4.0,12.0,69,0.00,,,0.01,weatherlink.com 1.10,2013-04-01 18:44:00,
2013-04-01 14:59:00,73.0,60.0,29.87,WSW,252,10.0,15.0,65,0.00,,,0.01,weatherlink.com 1.10,2013-04-01 18:59:00,
2013-04-01 15:14:00,73.6,61.0,29.87,West,263,7.0,13.0,64,0.00,,,0.01,weatherlink.com 1.10,2013-04-01 19:14:00,
2013-04-01 15:30:00,73.5,60.0,29.86,West,262,6.0,10.0,63,0.00,,,0.01,weatherlink.com 1.10,2013-04-01 19:30:00,
2013-04-01 15:45:00,73.0,60.0,29.86,NW,313,5.0,13.0,64,0.00,,,0.01,weatherlink.com 1.10,2013-04-01 19:45:00,
2013-04-01 16:00:00,74.3,60.0,29.86,West,276,4.0,17.0,61,0.00,,,0.01,weatherlink.com 1.10,2013-04-01 20:00:00,
2013-04-01 16:15:00,74.6,60.0,29.86,NW,319,10.0,12.0,61,0.00,,,0.01,weatherlink.com 1.10,2013-04-01 20:15:00,
2013-04-01 16:30:00,75.6,60.0,29.86,West,267,8.0,16.0,58,0.00,,,0.01,weatherlink.com 1.10,2013-04-01 20:30:00,
2013-04-01 16:45:00,75.4,59.0,29.86,WNW,300,8.0,17.0,58,0.00,,,0.01,weatherlink.com 1.10,2013-04-01 20:45:00,
2013-04-01 17:00:00,75.5,60.0,29.86,WNW,288,3.0,14.0,58,0.00,,,0.01,weatherlink.com 1.10,2013-04-01 21:00:00,
2013-04-01 17:15:00,75.5,59.0,29.86,West,277,9.0,13.0,57,0.00,,,0.01,weatherlink.com 1.10,2013-04-01 21:15:00,
2013-04-01 17:30:00,75.5,59.0,29.86,WNW,286,6.0,16.0,56,0.00,,,0.01,weatherlink.com 1.10,2013-04-01 21:30:00,
2013-04-01 17:45:00,75.5,59.0,29.86,WNW,285,13.0,14.0,56,0.00,,,0.01,weatherlink.com 1.10,2013-04-01 21:45:00,
2013-04-01 18:00:00,75.2,58.0,29.86,NW,312,4.0,15.0,55,0.00,,,0.01,weatherlink.com 1.10,2013-04-01 22:00:00,
2013-04-01 18:15:00,74.8,57.0,29.86,NW,320,14.0,19.0,54,0.00,,,0.01,weatherlink.com 1.10,2013-04-01 22:15:00,
2013-04-01 18:30:00,74.6,58.0,29.87,NW,304,1.0,13.0,56,0.00,,,0.01,weatherlink.com 1.10,2013-04-01 22:30:00,
2013-04-01 18:45:00,74.7,57.0,29.87,NW,306,7.0,16.0,54,0.00,,,0.01,weatherlink.com 1.10,2013-04-01 22:45:00,
2013-04-01 19:00:00,73.9,57.0,29.88,NW,308,4.0,13.0,55,0.00,,,0.01,weatherlink.com 1.10,2013-04-01 23:00:00,
2013-04-01 19:15:00,73.5,57.0,29.88,NW,312,7.0,9.0,56,0.00,,,0.01,weatherlink.com 1.10,2013-04-01 23:15:00,
2013-04-01 19:30:00,73.0,56.0,29.89,WNW,300,0.0,9.0,56,0.00,,,0.01,weatherlink.com 1.10,2013-04-01 23:30:00,
2013-04-01 19:45:00,72.4,56.0,29.89,WNW,298,0.0,13.0,57,0.00,,,0.01,weatherlink.com 1.10,2013-04-01 23:45:00,
2013-04-01 20:00:00,71.7,56.0,29.89,WNW,296,4.0,8.0,58,0.00,,,0.01,weatherlink.com 1.10,2013-04-02 00:00:00,
2013-04-01 20:15:00,71.1,56.0,29.89,WNW,296,0.0,5.0,59,0.00,,,0.01,weatherlink.com 1.10,2013-04-02 00:15:00,
2013-04-01 20:30:00,70.8,56.0,29.89,WNW,296,0.0,2.0,59,0.00,,,0.01,weatherlink.com 1.10,2013-04-02 00:30:00,
2013-04-01 20:45:00,69.6,56.0,29.90,WNW,296,0.0,0.0,63,0.00,,,0.01,weatherlink.com 1.10,2013-04-02 00:45:00,
2013-04-01 21:00:00,67.9,57.0,29.90,WNW,296,0.0,5.0,68,0.00,,,0.01,weatherlink.com 1.10,2013-04-02 01:00:00,
2013-04-01 21:15:00,65.2,57.0,29.90,WNW,296,0.0,2.0,75,0.00,,,0.01,weatherlink.com 1.10,2013-04-02 01:15:00,
2013-04-01 21:30:00,64.0,58.0,29.91,WNW,296,0.0,0.0,80,0.00,,,0.01,weatherlink.com 1.10,2013-04-02 01:30:00,
2013-04-01 21:45:00,63.4,58.0,29.91,WNW,296,0.0,2.0,83,0.00,,,0.01,weatherlink.com 1.10,2013-04-02 01:45:00,
2013-04-01 22:00:00,62.9,58.0,29.92,WNW,296,0.0,0.0,84,0.00,,,0.01,weatherlink.com 1.10,2013-04-02 02:00:00,
2013-04-01 22:15:00,62.4,58.0,29.93,WNW,296,0.0,2.0,86,0.00,,,0.01,weatherlink.com 1.10,2013-04-02 02:15:00,
2013-04-01 22:30:00,62.0,58.0,29.93,WNW,296,0.0,1.0,87,0.00,,,0.01,weatherlink.com 1.10,2013-04-02 02:30:00,
2013-04-01 22:45:00,61.6,58.0,29.93,WNW,296,0.0,1.0,88,0.00,,,0.01,weatherlink.com 1.10,2013-04-02 02:45:00,
2013-04-01 23:00:00,61.4,58.0,29.94,WNW,296,0.0,3.0,88,0.00,,,0.01,weatherlink.com 1.10,2013-04-02 03:00:00,
2013-04-01 23:15:00,61.3,58.0,29.94,WNW,296,0.0,1.0,89,0.00,,,0.01,weatherlink.com 1.10,2013-04-02 03:15:00,
2013-04-01 23:30:00,61.0,58.0,29.95,WNW,296,0.0,0.0,89,0.00,,,0.01,weatherlink.com 1.10,2013-04-02 03:30:00,
2013-04-01 23:45:00,60.7,58.0,29.95,WNW,296,0.0,1.0,90,0.00,,,0.01,weatherlink.com 1.10,2013-04-02 03:45:00,